sensor_id;sensor_type;location;lat;lon;timestamp;P1;durP1;ratioP1;P2;durP2;ratioP2
1024;SDS011;501;48.214;11.350;2023-05-27T00:01:53;10.40;;;8.43;;
1024;SDS011;501;48.214;11.350;2023-05-27T00:04:19;12.23;;;9.30;;
1024;SDS011;501;48.214;11.350;2023-05-27T00:06:44;10.10;;;8.17;;
1024;SDS011;501;48.214;11.350;2023-05-27T00:09:10;8.60;;;7.60;;
1024;SDS011;501;48.214;11.350;2023-05-27T00:11:36;11.33;;;8.53;;
1024;SDS011;501;48.214;11.350;2023-05-27T00:14:02;12.00;;;7.87;;
1024;SDS011;501;48.214;11.350;2023-05-27T00:16:28;11.97;;;8.43;;
1024;SDS011;501;48.214;11.350;2023-05-27T00:18:53;10.47;;;9.03;;
1024;SDS011;501;48.214;11.350;2023-05-27T00:21:19;10.33;;;8.67;;
1024;SDS011;501;48.214;11.350;2023-05-27T00:23:45;11.93;;;8.67;;
1024;SDS011;501;48.214;11.350;2023-05-27T00:26:15;10.10;;;8.50;;
1024;SDS011;501;48.214;11.350;2023-05-27T00:28:41;13.27;;;9.50;;
1024;SDS011;501;48.214;11.350;2023-05-27T00:31:06;11.40;;;8.87;;
1024;SDS011;501;48.214;11.350;2023-05-27T00:33:32;13.07;;;8.87;;
1024;SDS011;501;48.214;11.350;2023-05-27T00:35:57;9.53;;;8.63;;
1024;SDS011;501;48.214;11.350;2023-05-27T00:38:23;12.13;;;9.00;;
1024;SDS011;501;48.214;11.350;2023-05-27T00:40:49;12.03;;;9.70;;
1024;SDS011;501;48.214;11.350;2023-05-27T00:43:17;10.43;;;8.80;;
1024;SDS011;501;48.214;11.350;2023-05-27T00:45:43;9.33;;;8.27;;
1024;SDS011;501;48.214;11.350;2023-05-27T00:48:08;12.37;;;8.57;;
1024;SDS011;501;48.214;11.350;2023-05-27T00:50:37;11.90;;;8.63;;
1024;SDS011;501;48.214;11.350;2023-05-27T00:53:02;10.30;;;9.10;;
1024;SDS011;501;48.214;11.350;2023-05-27T00:55:28;12.60;;;8.60;;
1024;SDS011;501;48.214;11.350;2023-05-27T00:57:54;9.97;;;8.90;;
1024;SDS011;501;48.214;11.350;2023-05-27T01:00:23;12.43;;;8.90;;
1024;SDS011;501;48.214;11.350;2023-05-27T01:02:49;11.20;;;8.50;;
1024;SDS011;501;48.214;11.350;2023-05-27T01:05:16;12.03;;;8.90;;
1024;SDS011;501;48.214;11.350;2023-05-27T01:15:49;14.77;;;8.30;;
1024;SDS011;501;48.214;11.350;2023-05-27T01:18:17;12.27;;;9.40;;
1024;SDS011;501;48.214;11.350;2023-05-27T01:20:45;10.43;;;8.53;;
1024;SDS011;501;48.214;11.350;2023-05-27T01:23:13;11.50;;;8.87;;
1024;SDS011;501;48.214;11.350;2023-05-27T01:25:38;11.07;;;8.93;;
1024;SDS011;501;48.214;11.350;2023-05-27T01:28:04;10.27;;;9.20;;
1024;SDS011;501;48.214;11.350;2023-05-27T01:30:30;8.70;;;7.80;;
1024;SDS011;501;48.214;11.350;2023-05-27T01:33:07;10.57;;;9.17;;
1024;SDS011;501;48.214;11.350;2023-05-27T01:38:18;10.80;;;8.80;;
1024;SDS011;501;48.214;11.350;2023-05-27T01:40:46;10.23;;;8.50;;
1024;SDS011;501;48.214;11.350;2023-05-27T01:43:13;9.90;;;8.80;;
1024;SDS011;501;48.214;11.350;2023-05-27T01:45:40;9.87;;;8.27;;
1024;SDS011;501;48.214;11.350;2023-05-27T01:48:06;9.33;;;8.37;;
1024;SDS011;501;48.214;11.350;2023-05-27T01:50:34;11.90;;;8.73;;
1024;SDS011;501;48.214;11.350;2023-05-27T01:53:00;11.63;;;9.40;;
1024;SDS011;501;48.214;11.350;2023-05-27T01:55:28;10.13;;;9.13;;
1024;SDS011;501;48.214;11.350;2023-05-27T01:57:54;12.13;;;8.57;;
1024;SDS011;501;48.214;11.350;2023-05-27T02:00:19;12.63;;;8.97;;
1024;SDS011;501;48.214;11.350;2023-05-27T02:02:45;10.73;;;9.17;;
1024;SDS011;501;48.214;11.350;2023-05-27T02:05:11;10.83;;;8.80;;
1024;SDS011;501;48.214;11.350;2023-05-27T02:07:36;13.50;;;9.43;;
1024;SDS011;501;48.214;11.350;2023-05-27T02:10:02;10.47;;;9.40;;
1024;SDS011;501;48.214;11.350;2023-05-27T02:12:27;10.47;;;9.30;;
1024;SDS011;501;48.214;11.350;2023-05-27T02:14:53;11.30;;;9.37;;
1024;SDS011;501;48.214;11.350;2023-05-27T02:17:19;10.60;;;9.00;;
1024;SDS011;501;48.214;11.350;2023-05-27T02:19:44;9.70;;;8.90;;
1024;SDS011;501;48.214;11.350;2023-05-27T02:22:10;9.90;;;8.90;;
1024;SDS011;501;48.214;11.350;2023-05-27T02:24:36;12.00;;;9.63;;
1024;SDS011;501;48.214;11.350;2023-05-27T02:27:01;12.37;;;10.40;;
1024;SDS011;501;48.214;11.350;2023-05-27T02:29:27;10.80;;;9.77;;
1024;SDS011;501;48.214;11.350;2023-05-27T02:31:53;11.10;;;9.00;;
1024;SDS011;501;48.214;11.350;2023-05-27T02:34:18;10.73;;;9.60;;
1024;SDS011;501;48.214;11.350;2023-05-27T02:36:44;9.20;;;8.10;;
1024;SDS011;501;48.214;11.350;2023-05-27T02:39:10;9.80;;;8.30;;
1024;SDS011;501;48.214;11.350;2023-05-27T02:41:35;14.27;;;9.33;;
1024;SDS011;501;48.214;11.350;2023-05-27T02:44:01;12.30;;;8.87;;
1024;SDS011;501;48.214;11.350;2023-05-27T02:46:27;12.57;;;10.10;;
1024;SDS011;501;48.214;11.350;2023-05-27T02:48:53;16.00;;;9.87;;
1024;SDS011;501;48.214;11.350;2023-05-27T02:51:19;9.90;;;8.90;;
1024;SDS011;501;48.214;11.350;2023-05-27T02:53:46;13.00;;;9.37;;
1024;SDS011;501;48.214;11.350;2023-05-27T02:56:11;10.57;;;9.47;;
1024;SDS011;501;48.214;11.350;2023-05-27T02:58:37;12.60;;;9.53;;
1024;SDS011;501;48.214;11.350;2023-05-27T03:01:03;10.63;;;9.53;;
1024;SDS011;501;48.214;11.350;2023-05-27T03:03:28;13.00;;;9.90;;
1024;SDS011;501;48.214;11.350;2023-05-27T03:05:54;12.70;;;9.90;;
1024;SDS011;501;48.214;11.350;2023-05-27T03:08:21;12.20;;;9.70;;
1024;SDS011;501;48.214;11.350;2023-05-27T03:10:46;9.70;;;8.80;;
1024;SDS011;501;48.214;11.350;2023-05-27T03:13:12;10.70;;;9.60;;
1024;SDS011;501;48.214;11.350;2023-05-27T03:15:38;10.10;;;8.77;;
1024;SDS011;501;48.214;11.350;2023-05-27T03:18:04;10.63;;;9.47;;
1024;SDS011;501;48.214;11.350;2023-05-27T03:20:30;10.80;;;9.40;;
1024;SDS011;501;48.214;11.350;2023-05-27T03:22:55;12.37;;;9.53;;
1024;SDS011;501;48.214;11.350;2023-05-27T03:25:21;14.03;;;10.00;;
1024;SDS011;501;48.214;11.350;2023-05-27T03:27:47;11.43;;;10.23;;
1024;SDS011;501;48.214;11.350;2023-05-27T03:30:15;13.10;;;9.10;;
1024;SDS011;501;48.214;11.350;2023-05-27T03:32:41;14.63;;;9.30;;
1024;SDS011;501;48.214;11.350;2023-05-27T03:35:07;10.60;;;9.33;;
1024;SDS011;501;48.214;11.350;2023-05-27T03:37:33;15.80;;;9.70;;
1024;SDS011;501;48.214;11.350;2023-05-27T03:39:58;11.67;;;9.90;;
1024;SDS011;501;48.214;11.350;2023-05-27T03:42:24;10.83;;;8.70;;
1024;SDS011;501;48.214;11.350;2023-05-27T03:44:50;17.73;;;10.63;;
1024;SDS011;501;48.214;11.350;2023-05-27T03:47:16;11.33;;;9.90;;
1024;SDS011;501;48.214;11.350;2023-05-27T03:49:45;13.47;;;10.60;;
1024;SDS011;501;48.214;11.350;2023-05-27T03:52:11;12.17;;;9.50;;
1024;SDS011;501;48.214;11.350;2023-05-27T03:54:37;14.13;;;10.20;;
1024;SDS011;501;48.214;11.350;2023-05-27T03:57:02;10.10;;;8.93;;
1024;SDS011;501;48.214;11.350;2023-05-27T03:59:28;14.07;;;10.70;;
1024;SDS011;501;48.214;11.350;2023-05-27T04:01:54;12.70;;;10.70;;
1024;SDS011;501;48.214;11.350;2023-05-27T04:04:20;12.30;;;9.40;;
1024;SDS011;501;48.214;11.350;2023-05-27T04:06:45;11.80;;;10.33;;
1024;SDS011;501;48.214;11.350;2023-05-27T04:09:11;11.03;;;9.40;;
1024;SDS011;501;48.214;11.350;2023-05-27T04:11:37;16.83;;;11.13;;
1024;SDS011;501;48.214;11.350;2023-05-27T04:14:02;11.23;;;9.77;;
1024;SDS011;501;48.214;11.350;2023-05-27T04:16:31;16.03;;;10.40;;
1024;SDS011;501;48.214;11.350;2023-05-27T04:19:00;15.40;;;9.90;;
1024;SDS011;501;48.214;11.350;2023-05-27T04:21:26;10.20;;;9.20;;
1024;SDS011;501;48.214;11.350;2023-05-27T04:23:52;14.77;;;10.40;;
1024;SDS011;501;48.214;11.350;2023-05-27T04:26:17;11.67;;;9.53;;
1024;SDS011;501;48.214;11.350;2023-05-27T04:28:43;11.97;;;9.83;;
1024;SDS011;501;48.214;11.350;2023-05-27T04:31:10;12.60;;;10.20;;
1024;SDS011;501;48.214;11.350;2023-05-27T04:33:44;11.60;;;10.40;;
1024;SDS011;501;48.214;11.350;2023-05-27T04:36:10;11.47;;;9.90;;
1024;SDS011;501;48.214;11.350;2023-05-27T04:38:36;13.00;;;9.93;;
1024;SDS011;501;48.214;11.350;2023-05-27T04:41:02;11.70;;;9.47;;
1024;SDS011;501;48.214;11.350;2023-05-27T04:43:28;10.77;;;9.67;;
1024;SDS011;501;48.214;11.350;2023-05-27T04:45:55;10.13;;;8.50;;
1024;SDS011;501;48.214;11.350;2023-05-27T04:48:27;11.97;;;9.30;;
1024;SDS011;501;48.214;11.350;2023-05-27T04:50:53;12.10;;;8.47;;
1024;SDS011;501;48.214;11.350;2023-05-27T04:53:19;17.00;;;8.70;;
1024;SDS011;501;48.214;11.350;2023-05-27T04:55:45;14.57;;;9.67;;
1024;SDS011;501;48.214;11.350;2023-05-27T04:58:11;16.60;;;10.13;;
1024;SDS011;501;48.214;11.350;2023-05-27T05:00:37;9.60;;;8.33;;
1024;SDS011;501;48.214;11.350;2023-05-27T05:03:22;10.20;;;8.20;;
1024;SDS011;501;48.214;11.350;2023-05-27T05:06:01;11.03;;;8.50;;
1024;SDS011;501;48.214;11.350;2023-05-27T05:08:28;11.27;;;8.77;;
1024;SDS011;501;48.214;11.350;2023-05-27T05:10:53;10.57;;;9.37;;
1024;SDS011;501;48.214;11.350;2023-05-27T05:13:19;9.23;;;8.27;;
1024;SDS011;501;48.214;11.350;2023-05-27T05:15:45;10.63;;;8.10;;
1024;SDS011;501;48.214;11.350;2023-05-27T05:18:10;11.17;;;8.10;;
1024;SDS011;501;48.214;11.350;2023-05-27T05:20:37;12.77;;;8.43;;
1024;SDS011;501;48.214;11.350;2023-05-27T05:23:03;14.80;;;8.43;;
1024;SDS011;501;48.214;11.350;2023-05-27T05:25:29;11.03;;;8.30;;
1024;SDS011;501;48.214;11.350;2023-05-27T05:27:55;14.67;;;7.90;;
1024;SDS011;501;48.214;11.350;2023-05-27T05:30:21;11.60;;;8.10;;
1024;SDS011;501;48.214;11.350;2023-05-27T05:32:47;10.97;;;8.20;;
1024;SDS011;501;48.214;11.350;2023-05-27T05:35:13;8.00;;;7.20;;
1024;SDS011;501;48.214;11.350;2023-05-27T05:37:38;12.00;;;7.87;;
1024;SDS011;501;48.214;11.350;2023-05-27T05:40:04;8.27;;;7.40;;
1024;SDS011;501;48.214;11.350;2023-05-27T05:42:30;10.37;;;8.07;;
1024;SDS011;501;48.214;11.350;2023-05-27T05:44:56;8.33;;;6.80;;
1024;SDS011;501;48.214;11.350;2023-05-27T05:47:21;8.50;;;6.80;;
1024;SDS011;501;48.214;11.350;2023-05-27T05:49:47;8.90;;;7.30;;
1024;SDS011;501;48.214;11.350;2023-05-27T05:52:13;11.27;;;7.17;;
1024;SDS011;501;48.214;11.350;2023-05-27T05:54:38;11.53;;;7.17;;
1024;SDS011;501;48.214;11.350;2023-05-27T05:57:04;14.53;;;7.00;;
1024;SDS011;501;48.214;11.350;2023-05-27T05:59:30;15.77;;;7.10;;
1024;SDS011;501;48.214;11.350;2023-05-27T06:01:56;8.00;;;7.20;;
1024;SDS011;501;48.214;11.350;2023-05-27T06:04:22;9.13;;;7.20;;
1024;SDS011;501;48.214;11.350;2023-05-27T06:06:48;9.33;;;6.80;;
1024;SDS011;501;48.214;11.350;2023-05-27T06:09:13;11.10;;;7.20;;
1024;SDS011;501;48.214;11.350;2023-05-27T06:11:39;9.70;;;7.60;;
1024;SDS011;501;48.214;11.350;2023-05-27T06:14:05;11.83;;;7.80;;
1024;SDS011;501;48.214;11.350;2023-05-27T06:16:31;10.23;;;6.63;;
1024;SDS011;501;48.214;11.350;2023-05-27T06:18:58;7.40;;;6.70;;
1024;SDS011;501;48.214;11.350;2023-05-27T06:21:23;10.43;;;7.83;;
1024;SDS011;501;48.214;11.350;2023-05-27T06:23:49;10.50;;;6.80;;
1024;SDS011;501;48.214;11.350;2023-05-27T06:26:14;11.20;;;7.70;;
1024;SDS011;501;48.214;11.350;2023-05-27T06:28:40;12.40;;;6.10;;
1024;SDS011;501;48.214;11.350;2023-05-27T06:31:09;11.47;;;6.87;;
1024;SDS011;501;48.214;11.350;2023-05-27T06:33:34;10.73;;;6.70;;
1024;SDS011;501;48.214;11.350;2023-05-27T06:36:00;13.20;;;7.03;;
1024;SDS011;501;48.214;11.350;2023-05-27T06:38:25;8.67;;;5.97;;
1024;SDS011;501;48.214;11.350;2023-05-27T06:40:51;11.13;;;6.50;;
1024;SDS011;501;48.214;11.350;2023-05-27T06:43:17;10.13;;;6.43;;
1024;SDS011;501;48.214;11.350;2023-05-27T06:45:42;9.07;;;6.40;;
1024;SDS011;501;48.214;11.350;2023-05-27T06:48:08;9.90;;;6.10;;
1024;SDS011;501;48.214;11.350;2023-05-27T06:50:33;14.17;;;6.27;;
1024;SDS011;501;48.214;11.350;2023-05-27T06:52:59;7.90;;;5.53;;
1024;SDS011;501;48.214;11.350;2023-05-27T06:55:25;8.83;;;5.57;;
1024;SDS011;501;48.214;11.350;2023-05-27T06:57:50;9.07;;;6.20;;
1024;SDS011;501;48.214;11.350;2023-05-27T07:00:16;9.80;;;6.47;;
1024;SDS011;501;48.214;11.350;2023-05-27T07:02:42;12.77;;;5.77;;
1024;SDS011;501;48.214;11.350;2023-05-27T07:05:08;8.93;;;6.43;;
1024;SDS011;501;48.214;11.350;2023-05-27T07:07:33;12.20;;;5.87;;
1024;SDS011;501;48.214;11.350;2023-05-27T07:09:59;11.40;;;6.40;;
1024;SDS011;501;48.214;11.350;2023-05-27T07:12:24;9.63;;;5.80;;
1024;SDS011;501;48.214;11.350;2023-05-27T07:14:50;7.13;;;5.73;;
1024;SDS011;501;48.214;11.350;2023-05-27T07:17:16;13.17;;;6.67;;
1024;SDS011;501;48.214;11.350;2023-05-27T07:19:41;9.50;;;5.30;;
1024;SDS011;501;48.214;11.350;2023-05-27T07:22:07;12.77;;;6.60;;
1024;SDS011;501;48.214;11.350;2023-05-27T07:24:33;7.90;;;5.40;;
1024;SDS011;501;48.214;11.350;2023-05-27T07:26:58;6.70;;;5.53;;
1024;SDS011;501;48.214;11.350;2023-05-27T07:29:24;10.37;;;5.73;;
1024;SDS011;501;48.214;11.350;2023-05-27T07:31:50;8.37;;;5.53;;
1024;SDS011;501;48.214;11.350;2023-05-27T07:34:16;7.57;;;5.17;;
1024;SDS011;501;48.214;11.350;2023-05-27T07:36:41;9.57;;;5.80;;
1024;SDS011;501;48.214;11.350;2023-05-27T07:39:07;12.03;;;5.37;;
1024;SDS011;501;48.214;11.350;2023-05-27T07:41:32;14.23;;;6.00;;
1024;SDS011;501;48.214;11.350;2023-05-27T07:43:58;10.70;;;6.23;;
1024;SDS011;501;48.214;11.350;2023-05-27T07:46:24;9.63;;;5.10;;
1024;SDS011;501;48.214;11.350;2023-05-27T07:48:50;8.70;;;5.97;;
1024;SDS011;501;48.214;11.350;2023-05-27T07:51:15;8.63;;;6.10;;
1024;SDS011;501;48.214;11.350;2023-05-27T07:53:41;10.60;;;5.97;;
1024;SDS011;501;48.214;11.350;2023-05-27T07:56:07;9.10;;;4.93;;
1024;SDS011;501;48.214;11.350;2023-05-27T07:58:32;8.20;;;5.33;;
1024;SDS011;501;48.214;11.350;2023-05-27T08:00:58;9.37;;;5.33;;
1024;SDS011;501;48.214;11.350;2023-05-27T08:03:24;13.67;;;6.30;;
1024;SDS011;501;48.214;11.350;2023-05-27T08:05:52;9.03;;;5.73;;
1024;SDS011;501;48.214;11.350;2023-05-27T08:08:18;7.90;;;5.33;;
1024;SDS011;501;48.214;11.350;2023-05-27T08:10:43;7.80;;;4.97;;
1024;SDS011;501;48.214;11.350;2023-05-27T08:13:10;12.23;;;5.37;;
1024;SDS011;501;48.214;11.350;2023-05-27T08:15:36;10.90;;;5.67;;
1024;SDS011;501;48.214;11.350;2023-05-27T08:18:02;9.60;;;5.57;;
1024;SDS011;501;48.214;11.350;2023-05-27T08:20:27;11.90;;;5.80;;
1024;SDS011;501;48.214;11.350;2023-05-27T08:22:53;7.30;;;5.10;;
1024;SDS011;501;48.214;11.350;2023-05-27T08:25:19;8.10;;;5.73;;
1024;SDS011;501;48.214;11.350;2023-05-27T08:27:45;9.07;;;5.57;;
1024;SDS011;501;48.214;11.350;2023-05-27T08:30:14;7.70;;;5.53;;
1024;SDS011;501;48.214;11.350;2023-05-27T08:32:40;8.03;;;5.63;;
1024;SDS011;501;48.214;11.350;2023-05-27T08:35:07;6.70;;;5.87;;
1024;SDS011;501;48.214;11.350;2023-05-27T08:37:33;9.67;;;5.77;;
1024;SDS011;501;48.214;11.350;2023-05-27T08:39:58;11.57;;;5.20;;
1024;SDS011;501;48.214;11.350;2023-05-27T08:42:24;7.97;;;5.70;;
1024;SDS011;501;48.214;11.350;2023-05-27T08:44:50;15.60;;;5.80;;
1024;SDS011;501;48.214;11.350;2023-05-27T08:47:16;12.20;;;5.80;;
1024;SDS011;501;48.214;11.350;2023-05-27T08:49:42;8.67;;;5.00;;
1024;SDS011;501;48.214;11.350;2023-05-27T08:52:12;14.03;;;5.90;;
1024;SDS011;501;48.214;11.350;2023-05-27T08:54:43;11.57;;;5.07;;
1024;SDS011;501;48.214;11.350;2023-05-27T08:57:11;9.20;;;5.60;;
1024;SDS011;501;48.214;11.350;2023-05-27T08:59:40;10.07;;;5.50;;
1024;SDS011;501;48.214;11.350;2023-05-27T09:02:09;6.20;;;5.10;;
1024;SDS011;501;48.214;11.350;2023-05-27T09:04:37;11.47;;;5.23;;
1024;SDS011;501;48.214;11.350;2023-05-27T09:07:05;7.70;;;5.30;;
1024;SDS011;501;48.214;11.350;2023-05-27T09:09:30;10.23;;;5.47;;
1024;SDS011;501;48.214;11.350;2023-05-27T09:11:59;8.20;;;5.40;;
1024;SDS011;501;48.214;11.350;2023-05-27T09:14:27;11.50;;;5.60;;
1024;SDS011;501;48.214;11.350;2023-05-27T09:16:54;8.03;;;5.27;;
1024;SDS011;501;48.214;11.350;2023-05-27T09:19:20;8.60;;;4.97;;
1024;SDS011;501;48.214;11.350;2023-05-27T09:21:46;11.77;;;5.40;;
1024;SDS011;501;48.214;11.350;2023-05-27T09:24:24;8.67;;;5.50;;
1024;SDS011;501;48.214;11.350;2023-05-27T09:26:50;8.40;;;5.20;;
1024;SDS011;501;48.214;11.350;2023-05-27T09:29:18;7.13;;;5.00;;
1024;SDS011;501;48.214;11.350;2023-05-27T09:31:56;9.33;;;5.33;;
1024;SDS011;501;48.214;11.350;2023-05-27T09:34:21;11.20;;;5.33;;
1024;SDS011;501;48.214;11.350;2023-05-27T09:36:48;10.30;;;6.07;;
1024;SDS011;501;48.214;11.350;2023-05-27T09:39:15;11.60;;;6.10;;
1024;SDS011;501;48.214;11.350;2023-05-27T09:41:42;12.10;;;6.47;;
1024;SDS011;501;48.214;11.350;2023-05-27T09:44:10;7.57;;;5.47;;
1024;SDS011;501;48.214;11.350;2023-05-27T09:46:36;7.60;;;6.10;;
1024;SDS011;501;48.214;11.350;2023-05-27T09:49:02;10.70;;;5.60;;
1024;SDS011;501;48.214;11.350;2023-05-27T09:51:29;7.37;;;5.30;;
1024;SDS011;501;48.214;11.350;2023-05-27T09:53:57;8.57;;;5.90;;
1024;SDS011;501;48.214;11.350;2023-05-27T09:56:24;9.90;;;5.60;;
1024;SDS011;501;48.214;11.350;2023-05-27T09:58:52;10.83;;;5.70;;
1024;SDS011;501;48.214;11.350;2023-05-27T10:01:21;11.60;;;6.50;;
1024;SDS011;501;48.214;11.350;2023-05-27T10:03:53;8.03;;;5.37;;
1024;SDS011;501;48.214;11.350;2023-05-27T10:06:19;7.43;;;5.77;;
1024;SDS011;501;48.214;11.350;2023-05-27T10:08:46;6.73;;;5.63;;
1024;SDS011;501;48.214;11.350;2023-05-27T10:11:12;7.60;;;5.80;;
1024;SDS011;501;48.214;11.350;2023-05-27T10:13:38;8.03;;;6.00;;
1024;SDS011;501;48.214;11.350;2023-05-27T10:16:05;10.70;;;6.30;;
1024;SDS011;501;48.214;11.350;2023-05-27T10:18:31;8.10;;;5.90;;
1024;SDS011;501;48.214;11.350;2023-05-27T10:20:59;8.43;;;5.57;;
1024;SDS011;501;48.214;11.350;2023-05-27T10:23:26;12.30;;;5.50;;
1024;SDS011;501;48.214;11.350;2023-05-27T10:25:56;9.10;;;5.83;;
1024;SDS011;501;48.214;11.350;2023-05-27T10:28:26;9.57;;;6.30;;
1024;SDS011;501;48.214;11.350;2023-05-27T10:31:02;10.63;;;5.43;;
1024;SDS011;501;48.214;11.350;2023-05-27T10:33:36;5.93;;;5.43;;
1024;SDS011;501;48.214;11.350;2023-05-27T10:36:14;7.10;;;5.07;;
1024;SDS011;501;48.214;11.350;2023-05-27T10:38:41;9.03;;;5.70;;
1024;SDS011;501;48.214;11.350;2023-05-27T10:41:19;7.93;;;5.43;;
1024;SDS011;501;48.214;11.350;2023-05-27T10:43:53;9.87;;;6.23;;
1024;SDS011;501;48.214;11.350;2023-05-27T10:46:23;9.40;;;6.03;;
1024;SDS011;501;48.214;11.350;2023-05-27T10:48:49;7.77;;;5.20;;
1024;SDS011;501;48.214;11.350;2023-05-27T10:51:15;8.80;;;5.00;;
1024;SDS011;501;48.214;11.350;2023-05-27T10:53:40;9.37;;;5.60;;
1024;SDS011;501;48.214;11.350;2023-05-27T10:56:06;8.63;;;6.20;;
1024;SDS011;501;48.214;11.350;2023-05-27T10:58:36;8.53;;;5.70;;
1024;SDS011;501;48.214;11.350;2023-05-27T11:01:09;9.10;;;5.70;;
1024;SDS011;501;48.214;11.350;2023-05-27T11:03:41;9.57;;;5.90;;
1024;SDS011;501;48.214;11.350;2023-05-27T11:06:10;8.07;;;4.87;;
1024;SDS011;501;48.214;11.350;2023-05-27T11:08:38;13.77;;;5.97;;
1024;SDS011;501;48.214;11.350;2023-05-27T11:11:07;6.30;;;5.73;;
1024;SDS011;501;48.214;11.350;2023-05-27T11:13:40;6.33;;;5.73;;
1024;SDS011;501;48.214;11.350;2023-05-27T11:16:07;8.80;;;5.30;;
1024;SDS011;501;48.214;11.350;2023-05-27T11:18:43;12.33;;;6.73;;
1024;SDS011;501;48.214;11.350;2023-05-27T11:21:11;7.10;;;4.50;;
1024;SDS011;501;48.214;11.350;2023-05-27T11:23:38;6.93;;;5.47;;
1024;SDS011;501;48.214;11.350;2023-05-27T11:26:15;12.20;;;5.80;;
1024;SDS011;501;48.214;11.350;2023-05-27T11:31:12;7.20;;;5.27;;
1024;SDS011;501;48.214;11.350;2023-05-27T11:33:40;7.27;;;4.67;;
1024;SDS011;501;48.214;11.350;2023-05-27T11:36:13;8.90;;;5.27;;
1024;SDS011;501;48.214;11.350;2023-05-27T11:38:47;8.43;;;5.57;;
1024;SDS011;501;48.214;11.350;2023-05-27T11:41:21;8.83;;;5.73;;
1024;SDS011;501;48.214;11.350;2023-05-27T11:43:49;6.97;;;4.83;;
1024;SDS011;501;48.214;11.350;2023-05-27T11:46:16;7.97;;;6.23;;
1024;SDS011;501;48.214;11.350;2023-05-27T11:48:42;6.43;;;5.60;;
1024;SDS011;501;48.214;11.350;2023-05-27T11:51:09;6.73;;;5.07;;
1024;SDS011;501;48.214;11.350;2023-05-27T11:53:38;7.80;;;4.70;;
1024;SDS011;501;48.214;11.350;2023-05-27T11:56:05;8.53;;;4.90;;
1024;SDS011;501;48.214;11.350;2023-05-27T11:58:31;7.90;;;5.30;;
1024;SDS011;501;48.214;11.350;2023-05-27T12:00:57;8.60;;;5.47;;
1024;SDS011;501;48.214;11.350;2023-05-27T12:03:22;10.23;;;5.57;;
1024;SDS011;501;48.214;11.350;2023-05-27T12:05:48;7.50;;;5.43;;
1024;SDS011;501;48.214;11.350;2023-05-27T12:08:13;6.80;;;5.13;;
1024;SDS011;501;48.214;11.350;2023-05-27T12:10:39;7.60;;;5.13;;
1024;SDS011;501;48.214;11.350;2023-05-27T12:13:05;7.73;;;5.67;;
1024;SDS011;501;48.214;11.350;2023-05-27T12:15:31;8.07;;;5.67;;
1024;SDS011;501;48.214;11.350;2023-05-27T12:17:57;9.57;;;5.93;;
1024;SDS011;501;48.214;11.350;2023-05-27T12:20:23;6.33;;;5.20;;
1024;SDS011;501;48.214;11.350;2023-05-27T12:22:53;8.40;;;5.43;;
1024;SDS011;501;48.214;11.350;2023-05-27T12:25:20;8.73;;;5.20;;
1024;SDS011;501;48.214;11.350;2023-05-27T12:27:46;7.37;;;5.07;;
1024;SDS011;501;48.214;11.350;2023-05-27T12:30:12;7.17;;;4.73;;
1024;SDS011;501;48.214;11.350;2023-05-27T12:32:38;8.03;;;4.80;;
1024;SDS011;501;48.214;11.350;2023-05-27T12:35:04;8.03;;;4.20;;
1024;SDS011;501;48.214;11.350;2023-05-27T12:37:31;6.50;;;4.67;;
1024;SDS011;501;48.214;11.350;2023-05-27T12:39:56;9.10;;;5.00;;
1024;SDS011;501;48.214;11.350;2023-05-27T12:42:22;8.37;;;5.07;;
1024;SDS011;501;48.214;11.350;2023-05-27T12:44:48;6.70;;;5.33;;
1024;SDS011;501;48.214;11.350;2023-05-27T12:47:13;8.53;;;5.23;;
1024;SDS011;501;48.214;11.350;2023-05-27T12:49:39;6.23;;;4.70;;
1024;SDS011;501;48.214;11.350;2023-05-27T12:52:05;6.90;;;3.93;;
1024;SDS011;501;48.214;11.350;2023-05-27T12:54:31;6.07;;;4.20;;
1024;SDS011;501;48.214;11.350;2023-05-27T12:56:57;6.60;;;4.47;;
1024;SDS011;501;48.214;11.350;2023-05-27T12:59:22;6.50;;;4.53;;
1024;SDS011;501;48.214;11.350;2023-05-27T13:01:48;6.67;;;4.60;;
1024;SDS011;501;48.214;11.350;2023-05-27T13:04:13;6.50;;;4.13;;
1024;SDS011;501;48.214;11.350;2023-05-27T13:06:39;5.47;;;3.97;;
1024;SDS011;501;48.214;11.350;2023-05-27T13:09:04;5.60;;;4.40;;
1024;SDS011;501;48.214;11.350;2023-05-27T13:11:30;6.63;;;4.20;;
1024;SDS011;501;48.214;11.350;2023-05-27T13:13:56;8.10;;;5.03;;
1024;SDS011;501;48.214;11.350;2023-05-27T13:16:21;6.60;;;5.20;;
1024;SDS011;501;48.214;11.350;2023-05-27T13:18:47;5.80;;;3.90;;
1024;SDS011;501;48.214;11.350;2023-05-27T13:21:12;5.73;;;3.70;;
1024;SDS011;501;48.214;11.350;2023-05-27T13:23:39;5.57;;;4.00;;
1024;SDS011;501;48.214;11.350;2023-05-27T13:26:11;6.23;;;4.20;;
1024;SDS011;501;48.214;11.350;2023-05-27T13:28:37;7.97;;;5.03;;
1024;SDS011;501;48.214;11.350;2023-05-27T13:31:03;4.97;;;3.80;;
1024;SDS011;501;48.214;11.350;2023-05-27T13:33:29;4.13;;;3.63;;
1024;SDS011;501;48.214;11.350;2023-05-27T13:35:55;6.50;;;3.20;;
1024;SDS011;501;48.214;11.350;2023-05-27T13:38:21;4.47;;;4.07;;
1024;SDS011;501;48.214;11.350;2023-05-27T13:40:47;6.33;;;4.70;;
1024;SDS011;501;48.214;11.350;2023-05-27T13:43:12;6.63;;;3.90;;
1024;SDS011;501;48.214;11.350;2023-05-27T13:45:38;8.07;;;4.37;;
1024;SDS011;501;48.214;11.350;2023-05-27T13:48:03;6.30;;;4.20;;
1024;SDS011;501;48.214;11.350;2023-05-27T13:50:29;7.57;;;4.30;;
1024;SDS011;501;48.214;11.350;2023-05-27T13:52:56;5.40;;;3.87;;
1024;SDS011;501;48.214;11.350;2023-05-27T13:55:25;7.70;;;3.63;;
1024;SDS011;501;48.214;11.350;2023-05-27T13:57:51;7.10;;;4.83;;
1024;SDS011;501;48.214;11.350;2023-05-27T14:00:17;4.53;;;3.90;;
1024;SDS011;501;48.214;11.350;2023-05-27T14:02:42;6.90;;;3.93;;
1024;SDS011;501;48.214;11.350;2023-05-27T14:05:14;5.60;;;4.17;;
1024;SDS011;501;48.214;11.350;2023-05-27T14:07:43;7.30;;;3.80;;
1024;SDS011;501;48.214;11.350;2023-05-27T14:10:10;6.83;;;4.23;;
1024;SDS011;501;48.214;11.350;2023-05-27T14:12:36;6.80;;;4.17;;
1024;SDS011;501;48.214;11.350;2023-05-27T14:15:02;12.73;;;5.60;;
1024;SDS011;501;48.214;11.350;2023-05-27T14:17:28;6.37;;;4.37;;
1024;SDS011;501;48.214;11.350;2023-05-27T14:19:54;6.80;;;3.87;;
1024;SDS011;501;48.214;11.350;2023-05-27T14:22:21;6.90;;;4.40;;
1024;SDS011;501;48.214;11.350;2023-05-27T14:24:47;6.33;;;3.90;;
1024;SDS011;501;48.214;11.350;2023-05-27T14:27:13;7.50;;;4.77;;
1024;SDS011;501;48.214;11.350;2023-05-27T14:29:38;4.83;;;3.93;;
1024;SDS011;501;48.214;11.350;2023-05-27T14:32:05;5.50;;;4.07;;
1024;SDS011;501;48.214;11.350;2023-05-27T14:34:32;7.43;;;3.80;;
1024;SDS011;501;48.214;11.350;2023-05-27T14:36:58;7.90;;;3.70;;
1024;SDS011;501;48.214;11.350;2023-05-27T14:39:23;6.40;;;3.37;;
1024;SDS011;501;48.214;11.350;2023-05-27T14:41:49;6.60;;;3.47;;
1024;SDS011;501;48.214;11.350;2023-05-27T14:44:15;6.97;;;3.90;;
1024;SDS011;501;48.214;11.350;2023-05-27T14:46:40;6.77;;;3.70;;
1024;SDS011;501;48.214;11.350;2023-05-27T14:49:06;6.07;;;3.77;;
1024;SDS011;501;48.214;11.350;2023-05-27T14:51:31;4.40;;;4.00;;
1024;SDS011;501;48.214;11.350;2023-05-27T14:53:57;4.93;;;3.80;;
1024;SDS011;501;48.214;11.350;2023-05-27T14:56:23;3.60;;;3.23;;
1024;SDS011;501;48.214;11.350;2023-05-27T14:58:48;6.43;;;3.20;;
1024;SDS011;501;48.214;11.350;2023-05-27T15:01:15;4.80;;;3.30;;
1024;SDS011;501;48.214;11.350;2023-05-27T15:03:41;6.47;;;2.83;;
1024;SDS011;501;48.214;11.350;2023-05-27T15:06:07;8.70;;;3.83;;
1024;SDS011;501;48.214;11.350;2023-05-27T15:08:34;5.33;;;3.63;;
1024;SDS011;501;48.214;11.350;2023-05-27T15:11:01;3.00;;;2.80;;
1024;SDS011;501;48.214;11.350;2023-05-27T15:13:27;8.23;;;3.50;;
1024;SDS011;501;48.214;11.350;2023-05-27T15:15:52;9.00;;;3.70;;
1024;SDS011;501;48.214;11.350;2023-05-27T15:18:18;4.20;;;2.90;;